NZOH/OHA METAR and TAF weather

Enter ICAO airport designator
Station Type Date Time Source
NZOH METAR 2022/11/29 17:00 UTC NOAA

NZOH 291700Z 35008KT 20KM VCSH FEW020 BKN026 16/14 Q1003 TEMPO 6000 RA BKN014


Station Type Date Time Source
NZOH Decoded METAR 2022/11/29 17:00 UTC NOAA

Ohakea, New Zealand (NZOH) 40-12S 175-22E 52M
Nov 29, 2022 - 12:00 PM EST / 2022.11.29 1700 UTC
Wind: from the N (350 degrees) at 9 MPH (8 KT):0
Sky conditions: mostly cloudy
Weather: showers in the vicinity
Temperature: 60 F (16 C)
Dew Point: 57 F (14 C)
Relative Humidity: 87%
Pressure (altimeter): 29.62 in. Hg (1003 hPa)
ob: NZOH 291700Z 35008KT 20KM VCSH FEW020 BKN026 16/14 Q1003 TEMPO 6000 RA BKN014
cycle: 17

Station Type Date Time Source
NZOH TAF 2007/12/14 04:59 UTC NOAA